createdAt,value
2018-07-01T00:00:42.017Z,16.64
2018-07-01T00:03:10.029Z,16.67
2018-07-01T00:05:38.040Z,16.58
2018-07-01T00:08:06.091Z,16.66
2018-07-01T00:10:34.095Z,16.64
2018-07-01T00:13:02.109Z,16.61
2018-07-01T00:15:30.182Z,16.69
2018-07-01T00:17:58.427Z,16.51
2018-07-01T00:20:26.688Z,16.63
2018-07-01T00:22:55.025Z,16.53
2018-07-01T00:25:23.020Z,16.44
2018-07-01T00:27:51.200Z,16.46
2018-07-01T00:30:19.228Z,16.45
2018-07-01T00:32:47.309Z,16.39
2018-07-01T00:35:15.341Z,16.42
2018-07-01T00:37:43.344Z,16.33
2018-07-01T00:40:11.457Z,16.33
2018-07-01T00:42:39.500Z,16.36
2018-07-01T00:45:07.964Z,16.31
2018-07-01T00:47:35.970Z,16.38
2018-07-01T00:50:05.054Z,16.42
2018-07-01T00:52:33.072Z,16.53
2018-07-01T00:55:01.058Z,16.54
2018-07-01T00:57:29.060Z,16.49
2018-07-01T00:59:57.144Z,16.57
2018-07-01T01:02:25.148Z,16.49
2018-07-01T01:04:53.229Z,16.47
2018-07-01T01:07:21.272Z,16.36
2018-07-01T01:09:49.304Z,16.36
2018-07-01T01:12:17.524Z,16.49
2018-07-01T01:14:45.548Z,16.33
2018-07-01T01:17:13.565Z,16.40
2018-07-01T01:19:41.589Z,16.34
2018-07-01T01:22:09.601Z,16.33
2018-07-01T01:24:37.597Z,16.49
2018-07-01T01:27:05.595Z,16.41
2018-07-01T01:29:33.605Z,16.40
2018-07-01T01:32:02.206Z,16.24
2018-07-01T01:34:30.367Z,16.21
2018-07-01T01:36:58.574Z,16.18
2018-07-01T01:39:33.596Z,16.29
2018-07-01T01:42:07.068Z,16.26
2018-07-01T01:44:38.977Z,16.25
2018-07-01T01:47:11.616Z,16.22
2018-07-01T01:49:42.812Z,16.20
2018-07-01T01:52:15.230Z,16.13
2018-07-01T01:54:53.832Z,16.07
2018-07-01T01:57:27.417Z,16.09
2018-07-01T02:00:03.187Z,16.14
2018-07-01T02:02:36.564Z,16.22
2018-07-01T02:05:08.689Z,16.05
2018-07-01T02:07:44.207Z,15.92
2018-07-01T02:10:12.596Z,15.87
2018-07-01T02:12:40.568Z,15.83
2018-07-01T02:15:11.701Z,15.80
2018-07-01T02:17:42.189Z,15.86
2018-07-01T02:20:11.045Z,15.97
2018-07-01T02:22:43.909Z,15.84
2018-07-01T02:25:15.345Z,15.73
2018-07-01T02:27:43.705Z,15.86
2018-07-01T02:30:11.717Z,15.80
2018-07-01T02:32:39.801Z,15.62
2018-07-01T02:35:07.875Z,15.66
2018-07-01T02:37:36.032Z,15.52
2018-07-01T02:40:04.643Z,15.42
2018-07-01T02:42:32.884Z,15.43
2018-07-01T02:45:00.888Z,15.43
2018-07-01T02:47:28.958Z,15.35
2018-07-01T02:49:57.118Z,15.54
2018-07-01T02:52:25.303Z,15.66
2018-07-01T02:54:53.453Z,15.48
2018-07-01T02:57:21.676Z,15.58
2018-07-01T02:59:49.889Z,15.51
2018-07-01T03:02:17.904Z,15.63
2018-07-01T03:04:45.901Z,15.80
2018-07-01T03:07:13.913Z,15.79
2018-07-01T03:09:41.909Z,15.84
2018-07-01T03:12:09.921Z,15.95
2018-07-01T03:14:37.912Z,15.98
2018-07-01T03:19:45.425Z,15.79
2018-07-01T03:22:13.445Z,15.81
2018-07-01T03:24:41.429Z,15.77
2018-07-01T03:27:09.406Z,15.87
2018-07-01T03:29:37.404Z,15.84
2018-07-01T03:32:05.392Z,15.92
2018-07-01T03:34:33.420Z,15.86
2018-07-01T03:37:01.461Z,15.85
2018-07-01T03:39:29.439Z,15.90
2018-07-01T03:41:57.436Z,15.83
2018-07-01T03:44:25.436Z,15.81
2018-07-01T03:46:53.432Z,15.76
2018-07-01T03:49:21.477Z,15.67
2018-07-01T03:51:49.480Z,15.54
2018-07-01T03:54:17.480Z,15.56
2018-07-01T03:56:45.485Z,15.67
2018-07-01T03:59:13.500Z,15.78
2018-07-01T04:01:41.501Z,15.69
2018-07-01T04:04:09.475Z,15.73
2018-07-01T04:06:37.473Z,15.49
2018-07-01T04:09:08.072Z,15.38
2018-07-01T04:11:36.362Z,15.23
2018-07-01T04:14:04.340Z,15.17
2018-07-01T04:16:32.342Z,15.06
2018-07-01T04:19:00.323Z,15.23
2018-07-01T04:21:28.313Z,15.14
2018-07-01T04:23:56.360Z,15.20
2018-07-01T04:26:24.429Z,15.25
2018-07-01T04:28:52.545Z,15.33
2018-07-01T04:31:20.529Z,15.34
2018-07-01T04:33:48.581Z,15.09
2018-07-01T04:36:16.595Z,15.01
2018-07-01T04:38:44.709Z,14.99
2018-07-01T04:41:12.726Z,14.86
2018-07-01T04:43:40.749Z,14.95
2018-07-01T04:46:08.796Z,14.96
2018-07-01T04:48:36.850Z,15.03
2018-07-01T04:51:04.819Z,15.21
2018-07-01T04:53:32.938Z,15.22
2018-07-01T04:56:00.920Z,15.12
2018-07-01T04:58:28.937Z,15.06
2018-07-01T05:00:56.908Z,15.07
2018-07-01T05:03:24.904Z,15.10
2018-07-01T05:05:52.999Z,15.08
2018-07-01T05:08:21.342Z,15.10
2018-07-01T05:10:49.046Z,15.22
2018-07-01T05:13:17.064Z,15.30
2018-07-01T05:15:45.113Z,15.75
2018-07-01T05:18:13.110Z,17.32
2018-07-01T05:20:41.101Z,19.39
2018-07-01T05:23:09.089Z,20.40
2018-07-01T05:25:37.124Z,21.21
2018-07-01T05:28:05.173Z,21.98
2018-07-01T05:30:33.165Z,22.18
2018-07-01T05:33:01.156Z,22.35
2018-07-01T05:35:29.137Z,22.61
2018-07-01T05:37:57.142Z,22.86
2018-07-01T05:40:25.110Z,23.69
2018-07-01T05:42:53.156Z,24.26
2018-07-01T05:45:21.165Z,24.03
2018-07-01T05:47:49.200Z,24.51
2018-07-01T05:50:17.197Z,24.43
2018-07-01T05:52:45.352Z,24.16
2018-07-01T05:55:13.337Z,24.23
2018-07-01T05:57:41.375Z,24.76
2018-07-01T06:00:09.400Z,25.44
2018-07-01T06:02:37.372Z,25.34
2018-07-01T06:05:05.581Z,25.41
2018-07-01T06:07:33.606Z,25.61
2018-07-01T06:10:01.645Z,26.30
2018-07-01T06:12:29.629Z,26.40
2018-07-01T06:14:57.617Z,26.42
2018-07-01T06:17:25.616Z,26.09
2018-07-01T06:19:53.659Z,25.51
2018-07-01T06:22:21.668Z,25.35
2018-07-01T06:24:49.691Z,25.33
2018-07-01T06:27:17.672Z,25.21
2018-07-01T06:29:45.927Z,25.34
2018-07-01T06:32:14.145Z,25.71
2018-07-01T06:34:42.180Z,26.06
2018-07-01T06:37:10.181Z,26.91
2018-07-01T06:39:38.202Z,26.71
2018-07-01T06:42:06.192Z,27.28
2018-07-01T06:44:34.256Z,27.29
2018-07-01T06:47:02.245Z,26.57
2018-07-01T06:49:30.318Z,26.03
2018-07-01T06:51:58.317Z,25.42
2018-07-01T06:54:26.430Z,25.11
2018-07-01T06:56:54.462Z,24.87
2018-07-01T06:59:22.466Z,25.07
2018-07-01T07:01:50.472Z,25.51
2018-07-01T07:04:18.504Z,25.80
2018-07-01T07:06:46.538Z,26.17
2018-07-01T07:09:14.523Z,26.35
2018-07-01T07:11:42.544Z,26.59
2018-07-01T07:14:10.562Z,26.65
2018-07-01T07:16:38.591Z,26.81
2018-07-01T07:19:06.868Z,27.35
2018-07-01T07:21:34.898Z,27.19
2018-07-01T07:24:02.925Z,27.68
2018-07-01T07:26:30.941Z,27.23
2018-07-01T07:28:58.969Z,26.60
2018-07-01T07:31:27.021Z,26.61
2018-07-01T07:33:55.057Z,26.97
2018-07-01T07:36:23.110Z,26.71
2018-07-01T07:38:51.354Z,26.73
2018-07-01T07:41:19.333Z,26.73
2018-07-01T07:43:47.343Z,26.55
2018-07-01T07:46:15.344Z,25.63
2018-07-01T07:48:43.360Z,25.47
2018-07-01T07:51:11.396Z,25.07
2018-07-01T07:53:39.436Z,25.34
2018-07-01T07:56:07.469Z,25.42
2018-07-01T07:58:35.496Z,24.55
2018-07-01T08:01:03.530Z,24.51
2018-07-01T08:03:31.561Z,24.48
2018-07-01T08:05:59.640Z,24.52
2018-07-01T08:08:27.708Z,24.90
2018-07-01T08:10:55.756Z,24.70
2018-07-01T08:13:23.827Z,24.89
2018-07-01T08:15:51.877Z,24.90
2018-07-01T08:18:19.896Z,24.46
2018-07-01T08:20:47.942Z,24.26
2018-07-01T08:23:15.946Z,24.01
2018-07-01T08:25:43.977Z,23.72
2018-07-01T08:28:11.963Z,23.71
2018-07-01T08:30:39.981Z,23.42
2018-07-01T08:33:07.999Z,23.53
2018-07-01T08:35:36.080Z,23.57
2018-07-01T08:38:04.101Z,23.37
2018-07-01T08:40:32.264Z,23.61
2018-07-01T08:43:00.270Z,23.86
2018-07-01T08:45:28.268Z,24.03
2018-07-01T08:47:56.300Z,24.12
2018-07-01T08:50:24.305Z,24.51
2018-07-01T08:52:52.436Z,24.86
2018-07-01T08:55:20.401Z,24.69
2018-07-01T08:57:48.466Z,24.18
2018-07-01T09:00:16.553Z,23.63
2018-07-01T09:02:44.572Z,23.47
2018-07-01T09:05:12.618Z,23.31
2018-07-01T09:07:40.767Z,23.38
2018-07-01T09:10:08.793Z,23.55
2018-07-01T09:12:37.045Z,23.75
2018-07-01T09:15:05.822Z,23.43
2018-07-01T09:17:33.884Z,23.47
2018-07-01T09:20:01.931Z,23.65
2018-07-01T09:22:29.967Z,23.83
2018-07-01T09:24:58.037Z,24.01
2018-07-01T09:27:26.069Z,23.92
2018-07-01T09:30:00.619Z,23.83
2018-07-01T09:32:28.985Z,24.15
2018-07-01T09:34:57.038Z,23.95
2018-07-01T09:37:25.068Z,23.52
2018-07-01T09:39:53.286Z,23.39
2018-07-01T09:42:21.277Z,23.51
2018-07-01T09:44:49.284Z,23.48
2018-07-01T09:47:17.293Z,23.50
2018-07-01T09:49:45.335Z,23.37
2018-07-01T09:52:13.373Z,23.26
2018-07-01T09:54:41.439Z,23.42
2018-07-01T09:57:09.477Z,23.77
2018-07-01T09:59:37.524Z,23.88
2018-07-01T10:02:05.678Z,24.05
2018-07-01T10:04:33.708Z,24.26
2018-07-01T10:07:01.752Z,24.28
2018-07-01T10:09:30.812Z,24.12
2018-07-01T10:11:58.957Z,24.17
2018-07-01T10:14:26.912Z,24.15
2018-07-01T10:16:54.969Z,24.11
2018-07-01T10:19:22.993Z,24.38
2018-07-01T10:21:51.074Z,24.60
2018-07-01T10:24:19.105Z,24.83
2018-07-01T10:26:47.210Z,24.72
2018-07-01T10:29:15.646Z,24.83
2018-07-01T10:31:44.637Z,24.76
2018-07-01T10:34:13.429Z,24.46
2018-07-01T10:36:41.445Z,24.74
2018-07-01T10:39:14.033Z,25.00
2018-07-01T10:41:42.042Z,25.10
2018-07-01T10:44:10.088Z,24.73
2018-07-01T10:46:38.089Z,24.67
2018-07-01T10:49:06.355Z,24.52
2018-07-01T10:51:34.639Z,24.52
2018-07-01T10:54:02.806Z,24.21
2018-07-01T10:56:30.887Z,24.08
2018-07-01T10:58:58.897Z,24.22
2018-07-01T11:01:27.133Z,24.45
2018-07-01T11:03:55.474Z,24.44
2018-07-01T11:06:23.534Z,24.54
2018-07-01T11:08:51.582Z,24.54
2018-07-01T11:11:19.669Z,24.62
2018-07-01T11:13:47.693Z,24.27
2018-07-01T11:16:16.860Z,24.03
2018-07-01T11:18:44.936Z,23.95
2018-07-01T11:21:12.992Z,23.83
2018-07-01T11:23:41.372Z,23.94
2018-07-01T11:26:09.389Z,24.27
2018-07-01T11:28:37.504Z,24.67
2018-07-01T11:31:05.724Z,24.79
2018-07-01T11:33:33.761Z,24.80
2018-07-01T11:36:01.770Z,25.01
2018-07-01T11:38:29.893Z,24.87
2018-07-01T11:40:57.968Z,24.61
2018-07-01T11:43:26.029Z,24.54
2018-07-01T11:45:54.092Z,24.49
2018-07-01T11:48:22.112Z,24.13
2018-07-01T11:50:50.330Z,24.12
2018-07-01T11:53:18.404Z,24.11
2018-07-01T11:55:46.439Z,23.98
2018-07-01T11:58:14.493Z,23.89
2018-07-01T12:00:42.565Z,24.03
2018-07-01T12:03:10.612Z,24.13
2018-07-01T12:05:38.689Z,24.28
2018-07-01T12:08:06.742Z,24.22
2018-07-01T12:10:34.828Z,24.41
2018-07-01T12:13:02.868Z,24.72
2018-07-01T12:15:30.903Z,24.71
2018-07-01T12:17:58.998Z,24.93
2018-07-01T12:20:27.025Z,25.15
2018-07-01T12:22:55.116Z,25.04
2018-07-01T12:25:23.144Z,25.10
2018-07-01T12:27:51.197Z,25.33
2018-07-01T12:30:19.242Z,25.32
2018-07-01T12:32:47.255Z,25.19
2018-07-01T12:35:15.264Z,24.96
2018-07-01T12:37:43.416Z,24.94
2018-07-01T12:40:11.437Z,25.19
2018-07-01T12:42:39.456Z,25.44
2018-07-01T12:45:07.598Z,25.85
2018-07-01T12:47:35.649Z,25.85
2018-07-01T12:50:03.593Z,25.99
2018-07-01T12:52:31.638Z,25.86
2018-07-01T12:54:59.650Z,25.61
2018-07-01T12:57:27.679Z,25.55
2018-07-01T12:59:55.664Z,25.76
2018-07-01T13:02:23.808Z,25.59
2018-07-01T13:04:51.872Z,25.86
2018-07-01T13:07:19.869Z,25.96
2018-07-01T13:09:47.848Z,25.59
2018-07-01T13:12:15.959Z,25.60
2018-07-01T13:14:44.064Z,25.75
2018-07-01T13:17:12.114Z,25.67
2018-07-01T13:19:40.176Z,25.36
2018-07-01T13:22:08.204Z,25.57
2018-07-01T13:24:36.258Z,25.51
2018-07-01T13:27:04.439Z,25.61
2018-07-01T13:29:32.623Z,25.31
2018-07-01T13:32:00.600Z,25.43
2018-07-01T13:34:28.628Z,25.59
2018-07-01T13:36:56.637Z,25.87
2018-07-01T13:39:24.733Z,25.98
2018-07-01T13:41:52.732Z,26.10
2018-07-01T13:44:20.801Z,26.08
2018-07-01T13:46:48.863Z,25.82
2018-07-01T13:49:16.941Z,26.18
2018-07-01T13:51:44.911Z,26.60
2018-07-01T13:54:13.000Z,26.71
2018-07-01T13:56:41.074Z,26.38
2018-07-01T13:59:09.125Z,26.03
2018-07-01T14:01:37.173Z,26.05
2018-07-01T14:04:05.500Z,25.94
2018-07-01T14:06:33.583Z,26.04
2018-07-01T14:09:01.585Z,25.94
2018-07-01T14:11:29.596Z,26.28
2018-07-01T14:13:57.622Z,25.87
2018-07-01T14:16:25.628Z,25.62
2018-07-01T14:18:53.652Z,25.83
2018-07-01T14:21:21.692Z,26.08
2018-07-01T14:23:49.739Z,26.22
2018-07-01T14:26:18.889Z,26.29
2018-07-01T14:28:46.958Z,25.99
2018-07-01T14:31:16.025Z,25.81
2018-07-01T14:33:44.063Z,25.92
2018-07-01T14:36:12.097Z,26.06
2018-07-01T14:38:40.149Z,26.21
2018-07-01T14:41:08.201Z,26.22
2018-07-01T14:43:36.265Z,26.15
2018-07-01T14:46:04.353Z,25.97
2018-07-01T14:48:32.416Z,26.12
2018-07-01T14:51:00.476Z,25.87
2018-07-01T14:53:28.556Z,25.74
2018-07-01T14:55:56.576Z,25.62
2018-07-01T14:58:24.614Z,25.61
2018-07-01T15:00:52.817Z,25.93
2018-07-01T15:03:20.891Z,26.33
2018-07-01T15:05:48.896Z,26.47
2018-07-01T15:08:16.967Z,26.17
2018-07-01T15:10:44.985Z,26.12
2018-07-01T15:13:13.301Z,25.69
2018-07-01T15:15:41.559Z,25.53
2018-07-01T15:18:09.604Z,25.67
2018-07-01T15:20:37.716Z,25.71
2018-07-01T15:23:05.856Z,25.69
2018-07-01T15:25:34.192Z,25.54
2018-07-01T15:28:02.540Z,25.58
2018-07-01T15:30:30.536Z,25.64
2018-07-01T15:32:58.568Z,25.65
2018-07-01T15:35:26.589Z,25.65
2018-07-01T15:37:54.748Z,25.69
2018-07-01T15:40:22.834Z,25.69
2018-07-01T15:42:50.964Z,25.50
2018-07-01T15:45:19.040Z,25.68
2018-07-01T15:47:47.092Z,25.80
2018-07-01T15:50:15.685Z,25.89
2018-07-01T15:52:43.841Z,25.82
2018-07-01T15:55:11.873Z,25.68
2018-07-01T15:57:39.949Z,25.52
2018-07-01T16:00:08.389Z,25.63
2018-07-01T16:02:36.493Z,25.83
2018-07-01T16:05:05.057Z,25.94
2018-07-01T16:07:33.080Z,26.15
2018-07-01T16:10:01.072Z,26.29
2018-07-01T16:12:29.084Z,26.42
2018-07-01T16:14:57.082Z,26.48
2018-07-01T16:17:25.129Z,26.39
2018-07-01T16:19:53.133Z,26.21
2018-07-01T16:22:21.152Z,25.65
2018-07-01T16:24:54.504Z,25.61
2018-07-01T16:27:27.992Z,25.45
2018-07-01T16:29:55.981Z,25.27
2018-07-01T16:32:23.965Z,25.21
2018-07-01T16:34:51.999Z,25.23
2018-07-01T16:39:59.704Z,25.42
2018-07-01T16:42:27.900Z,25.52
2018-07-01T16:44:55.945Z,25.60
2018-07-01T16:47:24.249Z,25.70
2018-07-01T16:49:52.457Z,25.82
2018-07-01T16:52:20.489Z,25.72
2018-07-01T16:54:48.488Z,25.74
2018-07-01T16:57:16.518Z,25.58
2018-07-01T16:59:44.610Z,25.35
2018-07-01T17:02:12.610Z,25.38
2018-07-01T17:04:40.800Z,25.31
2018-07-01T17:07:08.925Z,25.24
2018-07-01T17:09:36.964Z,25.20
2018-07-01T17:12:05.120Z,25.18
2018-07-01T17:14:33.121Z,25.10
2018-07-01T17:17:01.129Z,25.16
2018-07-01T17:19:29.174Z,25.11
2018-07-01T17:21:57.205Z,25.15
2018-07-01T17:24:25.240Z,25.21
2018-07-01T17:26:53.428Z,25.11
2018-07-01T17:29:21.507Z,24.91
2018-07-01T17:31:54.945Z,24.96
2018-07-01T17:34:22.973Z,24.77
2018-07-01T17:36:51.100Z,24.59
2018-07-01T17:39:19.119Z,24.54
2018-07-01T17:41:47.458Z,24.49
2018-07-01T17:44:15.490Z,24.37
2018-07-01T17:46:43.524Z,24.26
2018-07-01T17:49:11.619Z,24.16
2018-07-01T17:51:39.639Z,24.12
2018-07-01T17:54:07.860Z,24.13
2018-07-01T17:56:35.894Z,24.11
2018-07-01T17:59:03.933Z,24.09
2018-07-01T18:01:31.948Z,24.10
2018-07-01T18:03:59.955Z,24.08
2018-07-01T18:06:28.542Z,23.90
2018-07-01T18:08:56.540Z,23.85
2018-07-01T18:11:24.593Z,23.79
2018-07-01T18:13:52.604Z,23.72
2018-07-01T18:16:20.703Z,23.52
2018-07-01T18:18:48.676Z,23.51
2018-07-01T18:21:20.514Z,23.60
2018-07-01T18:24:11.117Z,23.54
2018-07-01T18:26:12.812Z,23.63
2018-07-01T18:28:52.289Z,23.74
2018-07-01T18:31:09.840Z,23.62
2018-07-01T18:33:37.945Z,23.75
2018-07-01T18:36:05.980Z,23.60
2018-07-01T18:38:33.991Z,23.48
2018-07-01T18:41:01.977Z,23.56
2018-07-01T18:43:29.968Z,23.42
2018-07-01T18:45:57.988Z,23.31
2018-07-01T18:48:26.103Z,23.38
2018-07-01T18:50:54.286Z,23.24
2018-07-01T18:53:22.339Z,23.21
2018-07-01T18:55:50.349Z,23.22
2018-07-01T18:58:18.411Z,23.16
2018-07-01T19:00:46.437Z,23.29
2018-07-01T19:03:14.647Z,23.15
2018-07-01T19:05:42.653Z,23.06
2018-07-01T19:08:10.676Z,23.16
2018-07-01T19:10:38.692Z,23.11
2018-07-01T19:13:06.770Z,23.00
2018-07-01T19:15:34.828Z,22.84
2018-07-01T19:18:02.983Z,22.75
2018-07-01T19:20:31.079Z,22.75
2018-07-01T19:22:59.114Z,22.63
2018-07-01T19:25:27.169Z,22.44
2018-07-01T19:27:55.358Z,22.37
2018-07-01T19:30:23.348Z,22.47
2018-07-01T19:32:51.352Z,22.50
2018-07-01T19:35:19.402Z,22.42
2018-07-01T19:37:47.420Z,22.38
2018-07-01T19:40:15.409Z,22.29
2018-07-01T19:42:43.614Z,22.08
2018-07-01T19:45:11.541Z,22.02
2018-07-01T19:47:39.660Z,21.76
2018-07-01T19:50:07.896Z,21.26
2018-07-01T19:52:36.123Z,21.22
2018-07-01T19:55:04.244Z,21.04
2018-07-01T19:57:32.261Z,21.00
2018-07-01T20:00:00.259Z,20.88
2018-07-01T20:02:28.261Z,20.65
2018-07-01T20:04:56.284Z,20.56
2018-07-01T20:07:24.306Z,20.45
2018-07-01T20:09:52.340Z,20.43
2018-07-01T20:12:20.344Z,20.37
2018-07-01T20:14:48.345Z,20.31
2018-07-01T20:17:16.380Z,20.29
2018-07-01T20:19:44.481Z,20.24
2018-07-01T20:22:12.484Z,20.15
2018-07-01T20:24:40.524Z,20.06
2018-07-01T20:27:08.540Z,20.15
2018-07-01T20:29:36.528Z,20.12
2018-07-01T20:32:04.573Z,20.02
2018-07-01T20:34:32.563Z,20.07
2018-07-01T20:37:00.589Z,20.07
2018-07-01T20:39:28.625Z,20.04
2018-07-01T20:41:56.713Z,19.73
2018-07-01T20:44:24.728Z,19.49
2018-07-01T20:46:52.733Z,19.33
2018-07-01T20:49:20.765Z,19.41
2018-07-01T20:51:48.784Z,19.38
2018-07-01T20:54:16.997Z,19.16
2018-07-01T20:56:45.041Z,19.27
2018-07-01T20:59:13.107Z,19.20
2018-07-01T21:01:41.172Z,19.16
2018-07-01T21:04:09.193Z,19.10
2018-07-01T21:06:37.196Z,18.95
2018-07-01T21:09:07.656Z,18.78
2018-07-01T21:11:35.737Z,18.67
2018-07-01T21:16:26.732Z,18.68
2018-07-01T21:18:54.724Z,18.60
2018-07-01T21:21:22.725Z,18.55
2018-07-01T21:23:50.749Z,18.55
2018-07-01T21:26:18.769Z,18.62
2018-07-01T21:28:46.853Z,18.56
2018-07-01T21:31:14.929Z,18.45
2018-07-01T21:33:42.927Z,18.42
2018-07-01T21:36:10.927Z,18.38
2018-07-01T21:38:39.501Z,18.18
2018-07-01T21:41:07.536Z,18.13
2018-07-01T21:43:35.554Z,17.92
2018-07-01T21:46:03.595Z,17.83
2018-07-01T21:48:31.612Z,17.84
2018-07-01T21:50:59.634Z,17.78
2018-07-01T21:53:27.629Z,17.66
2018-07-01T21:55:55.622Z,17.62
2018-07-01T21:58:23.588Z,17.52
2018-07-01T22:00:51.593Z,17.55
2018-07-01T22:03:19.616Z,17.42
2018-07-01T22:05:47.629Z,17.36
2018-07-01T22:08:15.829Z,17.33
2018-07-01T22:10:55.649Z,17.29
2018-07-01T22:14:37.448Z,17.30
2018-07-01T22:17:07.365Z,17.18
2018-07-01T22:19:35.631Z,17.11
2018-07-01T22:22:03.804Z,17.07
2018-07-01T22:24:33.010Z,17.07
2018-07-01T22:27:01.062Z,17.07
2018-07-01T22:29:29.056Z,17.03
2018-07-01T22:31:57.316Z,17.02
2018-07-01T22:34:25.390Z,16.98
2018-07-01T22:36:53.950Z,16.89
2018-07-01T22:39:26.606Z,16.97
2018-07-01T22:41:55.536Z,16.90
2018-07-01T22:44:23.742Z,16.90
2018-07-01T22:46:52.453Z,16.80
2018-07-01T22:49:20.448Z,16.86
2018-07-01T22:51:48.437Z,16.93
2018-07-01T22:54:16.504Z,16.81
2018-07-01T22:56:44.504Z,16.74
2018-07-01T22:59:12.568Z,16.74
2018-07-01T23:02:58.048Z,16.66
2018-07-01T23:05:26.080Z,16.41
2018-07-01T23:07:54.095Z,16.32
2018-07-01T23:10:23.395Z,16.33
2018-07-01T23:12:52.384Z,16.40
2018-07-01T23:15:20.578Z,16.37
2018-07-01T23:17:48.577Z,16.32
2018-07-01T23:20:16.633Z,16.26
2018-07-01T23:22:44.624Z,16.20
2018-07-01T23:25:13.394Z,16.29
2018-07-01T23:27:41.837Z,16.29
2018-07-01T23:30:09.842Z,16.20
2018-07-01T23:32:37.856Z,16.10
2018-07-01T23:35:06.165Z,16.07
2018-07-01T23:37:34.260Z,15.99
2018-07-01T23:40:02.268Z,16.00
2018-07-01T23:42:30.269Z,15.94
2018-07-01T23:44:58.325Z,15.92
2018-07-01T23:47:26.361Z,15.95
2018-07-01T23:49:54.368Z,15.79
2018-07-01T23:52:22.384Z,15.76
2018-07-01T23:54:50.416Z,15.74
2018-07-01T23:57:18.480Z,15.87
2018-07-01T23:59:46.485Z,15.87
